createdAt,value
2023-04-27T00:01:52.627Z,55.08
2023-04-27T00:04:20.682Z,55.03
2023-04-27T00:06:47.354Z,55.03
2023-04-27T00:09:13.941Z,55.10
2023-04-27T00:11:40.628Z,55.07
2023-04-27T00:14:07.059Z,54.97
2023-04-27T00:16:33.589Z,55.11
2023-04-27T00:19:00.776Z,54.97
2023-04-27T00:21:27.205Z,55.14
2023-04-27T00:23:54.525Z,55.09
2023-04-27T00:26:22.307Z,55.26
2023-04-27T00:28:50.720Z,55.14
2023-04-27T00:31:17.190Z,55.25
2023-04-27T00:33:43.623Z,55.09
2023-04-27T00:36:10.147Z,55.23
2023-04-27T00:38:36.889Z,55.05
2023-04-27T00:41:07.235Z,55.24
2023-04-27T00:43:42.031Z,55.26
2023-04-27T00:46:09.202Z,55.26
2023-04-27T00:48:35.825Z,55.07
2023-04-27T00:51:02.329Z,55.31
2023-04-27T00:53:29.383Z,55.39
2023-04-27T00:55:57.845Z,55.38
2023-04-27T00:58:25.519Z,55.29
2023-04-27T01:00:52.288Z,55.29
2023-04-27T01:03:18.935Z,55.42
2023-04-27T01:05:45.878Z,55.14
2023-04-27T01:08:13.411Z,55.50
2023-04-27T01:10:41.160Z,55.29
2023-04-27T01:13:10.129Z,55.43
2023-04-27T01:15:37.906Z,55.46
2023-04-27T01:18:09.441Z,55.35
2023-04-27T01:20:36.259Z,55.57
2023-04-27T01:23:03.395Z,55.28
2023-04-27T01:25:29.838Z,55.49
2023-04-27T01:27:56.360Z,55.43
2023-04-27T01:30:22.973Z,55.40
2023-04-27T01:32:50.055Z,55.47
2023-04-27T01:35:18.994Z,55.22
2023-04-27T01:37:45.722Z,55.29
2023-04-27T01:40:13.071Z,55.38
2023-04-27T01:42:39.495Z,55.54
2023-04-27T01:45:09.057Z,55.27
2023-04-27T01:47:35.658Z,55.36
2023-04-27T01:50:02.311Z,55.30
2023-04-27T01:52:28.787Z,55.51
2023-04-27T01:54:55.490Z,55.75
2023-04-27T01:57:22.692Z,55.26
2023-04-27T01:59:49.217Z,55.22
2023-04-27T02:02:15.773Z,55.61
2023-04-27T02:04:43.225Z,55.63
2023-04-27T02:07:10.974Z,55.46
2023-04-27T02:09:37.538Z,55.46
2023-04-27T02:12:04.141Z,55.44
2023-04-27T02:14:30.545Z,55.46
2023-04-27T02:16:56.963Z,55.46
2023-04-27T02:19:23.382Z,55.82
2023-04-27T02:21:49.821Z,55.53
2023-04-27T02:24:16.452Z,55.79
2023-04-27T02:26:44.933Z,55.80
2023-04-27T02:29:11.511Z,55.59
2023-04-27T02:31:38.566Z,55.75
2023-04-27T02:34:05.178Z,55.95
2023-04-27T02:36:31.974Z,55.73
2023-04-27T02:38:58.411Z,55.94
2023-04-27T02:41:27.805Z,56.00
2023-04-27T02:43:54.220Z,56.05
2023-04-27T02:46:20.750Z,55.92
2023-04-27T02:48:47.188Z,55.71
2023-04-27T02:51:13.665Z,56.05
2023-04-27T02:53:40.147Z,55.71
2023-04-27T02:56:06.671Z,56.04
2023-04-27T02:58:33.143Z,56.16
2023-04-27T03:00:59.672Z,55.81
2023-04-27T03:03:26.400Z,55.92
2023-04-27T03:05:52.916Z,55.95
2023-04-27T03:08:19.355Z,56.22
2023-04-27T03:10:45.814Z,56.08
2023-04-27T03:13:12.206Z,56.07
2023-04-27T03:15:38.657Z,56.08
2023-04-27T03:18:05.610Z,55.94
2023-04-27T03:20:33.656Z,56.02
2023-04-27T03:23:00.140Z,56.50
2023-04-27T03:25:26.670Z,56.09
2023-04-27T03:27:53.125Z,56.51
2023-04-27T03:30:22.730Z,56.14
2023-04-27T03:32:49.202Z,56.24
2023-04-27T03:35:15.889Z,56.27
2023-04-27T03:37:42.348Z,56.38
2023-04-27T03:40:09.365Z,56.56
2023-04-27T03:42:36.551Z,56.55
2023-04-27T03:45:03.057Z,56.54
2023-04-27T03:47:29.648Z,56.65
2023-04-27T03:49:57.020Z,56.53
2023-04-27T03:52:23.517Z,56.80
2023-04-27T03:54:50.207Z,56.52
2023-04-27T03:57:17.884Z,56.66
2023-04-27T03:59:44.288Z,56.73
2023-04-27T04:02:11.620Z,56.47
2023-04-27T04:04:38.501Z,56.74
2023-04-27T04:07:05.774Z,56.91
2023-04-27T04:09:32.334Z,56.74
2023-04-27T04:11:59.293Z,56.53
2023-04-27T04:14:27.234Z,56.85
2023-04-27T04:16:54.576Z,56.48
2023-04-27T04:19:22.104Z,56.75
2023-04-27T04:21:48.809Z,56.69
2023-04-27T04:24:16.088Z,56.75
2023-04-27T04:26:43.085Z,56.64
2023-04-27T04:29:10.968Z,56.88
2023-04-27T04:31:38.254Z,56.92
2023-04-27T04:34:04.892Z,56.71
2023-04-27T04:36:32.029Z,56.71
2023-04-27T04:38:58.633Z,56.83
2023-04-27T04:41:26.203Z,56.93
2023-04-27T04:43:52.699Z,56.86
2023-04-27T04:46:19.940Z,56.82
2023-04-27T04:48:46.848Z,56.87
2023-04-27T04:51:13.440Z,57.16
2023-04-27T04:53:39.976Z,57.13
2023-04-27T04:56:10.944Z,56.87
2023-04-27T04:58:37.457Z,57.10
2023-04-27T05:01:04.731Z,56.91
2023-04-27T05:03:31.662Z,57.34
2023-04-27T05:05:58.180Z,57.03
2023-04-27T05:08:24.865Z,57.16
2023-04-27T05:10:52.535Z,57.19
2023-04-27T05:13:19.668Z,57.29
2023-04-27T05:15:46.722Z,57.35
2023-04-27T05:18:13.217Z,57.60
2023-04-27T05:20:39.596Z,57.24
2023-04-27T05:23:06.024Z,57.75
2023-04-27T05:25:33.017Z,57.55
2023-04-27T05:27:59.467Z,57.75
2023-04-27T05:30:26.020Z,57.84
2023-04-27T05:32:52.653Z,58.09
2023-04-27T05:35:19.082Z,57.81
2023-04-27T05:37:45.512Z,57.79
2023-04-27T05:40:12.437Z,58.16
2023-04-27T05:42:39.007Z,57.99
2023-04-27T05:45:09.273Z,57.76
2023-04-27T05:47:36.480Z,57.89
2023-04-27T05:50:03.758Z,57.94
2023-04-27T05:52:31.288Z,57.90
2023-04-27T05:54:58.593Z,58.28
2023-04-27T05:57:26.033Z,58.33
2023-04-27T05:59:53.167Z,58.24
2023-04-27T06:02:20.003Z,58.11
2023-04-27T06:04:46.662Z,58.13
2023-04-27T06:07:14.662Z,57.83
2023-04-27T06:09:41.910Z,58.05
2023-04-27T06:12:09.329Z,58.12
2023-04-27T06:14:37.541Z,57.95
2023-04-27T06:17:04.358Z,57.90
2023-04-27T06:19:31.493Z,58.18
2023-04-27T06:21:57.878Z,58.12
2023-04-27T06:24:24.318Z,57.93
2023-04-27T06:26:51.071Z,57.87
2023-04-27T06:29:17.718Z,58.16
2023-04-27T06:31:44.446Z,58.25
2023-04-27T06:34:10.981Z,58.00
2023-04-27T06:36:37.390Z,58.16
2023-04-27T06:39:03.806Z,58.12
2023-04-27T06:41:30.641Z,57.97
2023-04-27T06:43:58.566Z,58.49
2023-04-27T06:46:26.035Z,58.38
2023-04-27T06:48:52.744Z,58.15
2023-04-27T06:51:19.413Z,58.16
2023-04-27T06:53:45.881Z,58.21
2023-04-27T06:56:12.364Z,58.40
2023-04-27T06:58:38.760Z,58.36
2023-04-27T07:01:05.325Z,58.50
2023-04-27T07:03:34.892Z,58.39
2023-04-27T07:06:01.665Z,58.32
2023-04-27T07:08:28.097Z,58.44
2023-04-27T07:10:56.046Z,58.53
2023-04-27T07:13:22.562Z,58.51
2023-04-27T07:15:54.831Z,58.37
2023-04-27T07:18:21.303Z,58.43
2023-04-27T07:20:47.679Z,58.42
2023-04-27T07:23:14.581Z,58.41
2023-04-27T07:25:41.025Z,58.61
2023-04-27T07:28:07.554Z,58.50
2023-04-27T07:30:36.410Z,58.84
2023-04-27T07:33:03.052Z,58.69
2023-04-27T07:35:29.686Z,59.06
2023-04-27T07:37:56.593Z,59.01
2023-04-27T07:40:24.176Z,58.94
2023-04-27T07:42:51.127Z,59.11
2023-04-27T07:45:17.978Z,58.84
2023-04-27T07:47:44.620Z,59.08
2023-04-27T07:50:11.192Z,58.88
2023-04-27T07:52:37.593Z,58.62
2023-04-27T07:55:04.660Z,58.76
2023-04-27T07:57:31.476Z,58.66
2023-04-27T07:59:58.037Z,58.70
2023-04-27T08:02:26.762Z,58.42
2023-04-27T08:04:53.529Z,58.61
2023-04-27T08:07:20.437Z,58.60
2023-04-27T08:09:47.032Z,58.40
2023-04-27T08:12:13.936Z,58.46
2023-04-27T08:14:40.419Z,58.61
2023-04-27T08:17:06.998Z,58.11
2023-04-27T08:19:33.483Z,58.38
2023-04-27T08:22:00.757Z,58.34
2023-04-27T08:24:27.178Z,58.10
2023-04-27T08:26:53.592Z,58.16
2023-04-27T08:29:27.960Z,57.93
2023-04-27T08:31:58.605Z,58.03
2023-04-27T08:34:25.703Z,57.70
2023-04-27T08:36:52.129Z,57.79
2023-04-27T08:39:18.939Z,57.68
2023-04-27T08:41:46.272Z,57.75
2023-04-27T08:44:12.790Z,57.78
2023-04-27T08:46:39.559Z,57.51
2023-04-27T08:49:07.395Z,57.38
2023-04-27T08:51:34.509Z,57.22
2023-04-27T08:54:01.317Z,57.24
2023-04-27T08:56:29.137Z,57.15
2023-04-27T08:58:57.294Z,57.01
2023-04-27T09:01:25.157Z,56.82
2023-04-27T09:04:00.013Z,56.76
2023-04-27T09:06:32.043Z,56.67
2023-04-27T09:08:59.002Z,56.41
2023-04-27T09:11:37.071Z,56.11
2023-04-27T09:14:19.334Z,56.03
2023-04-27T09:16:46.420Z,56.20
2023-04-27T09:19:24.066Z,55.52
2023-04-27T09:21:51.612Z,55.64
2023-04-27T09:24:18.063Z,55.13
2023-04-27T09:26:49.950Z,55.03
2023-04-27T09:29:16.403Z,55.15
2023-04-27T09:31:42.823Z,54.93
2023-04-27T09:34:09.236Z,54.77
2023-04-27T09:36:36.030Z,54.70
2023-04-27T09:39:06.433Z,54.32
2023-04-27T09:41:33.327Z,54.52
2023-04-27T09:44:00.133Z,54.36
2023-04-27T09:46:29.821Z,54.57
2023-04-27T09:48:57.340Z,54.77
2023-04-27T09:51:23.746Z,54.68
2023-04-27T09:53:54.154Z,54.82
2023-04-27T09:56:28.340Z,54.95
2023-04-27T09:59:23.166Z,54.87
2023-04-27T10:01:55.158Z,55.13
2023-04-27T10:04:55.878Z,55.00
2023-04-27T10:07:22.960Z,55.17
2023-04-27T10:09:51.692Z,54.81
2023-04-27T10:12:26.199Z,54.53
2023-04-27T10:14:58.205Z,54.60
2023-04-27T10:17:32.727Z,54.78
2023-04-27T10:20:01.437Z,54.93
2023-04-27T10:22:58.142Z,54.66
2023-04-27T10:25:38.912Z,54.61
2023-04-27T10:28:07.979Z,54.54
2023-04-27T10:30:37.307Z,54.65
2023-04-27T10:33:09.745Z,54.47
2023-04-27T10:35:38.683Z,54.13
2023-04-27T10:38:09.948Z,53.78
2023-04-27T10:40:39.656Z,53.98
2023-04-27T10:43:14.265Z,53.90
2023-04-27T10:45:42.486Z,53.72
2023-04-27T10:48:13.018Z,53.34
2023-04-27T10:50:40.423Z,53.53
2023-04-27T10:53:08.084Z,53.59
2023-04-27T10:55:35.571Z,53.35
2023-04-27T10:58:02.490Z,52.84
2023-04-27T11:00:32.392Z,52.95
2023-04-27T11:03:11.894Z,52.94
2023-04-27T11:05:38.982Z,52.93
2023-04-27T11:08:08.321Z,53.10
2023-04-27T11:10:38.102Z,53.19
2023-04-27T11:13:09.179Z,53.41
2023-04-27T11:15:43.721Z,53.60
2023-04-27T11:18:10.831Z,53.51
2023-04-27T11:20:37.305Z,53.07
2023-04-27T11:23:04.258Z,52.83
2023-04-27T11:25:30.719Z,52.37
2023-04-27T11:27:57.130Z,52.48
2023-04-27T11:30:24.098Z,52.78
2023-04-27T11:32:51.259Z,52.90
2023-04-27T11:35:18.297Z,52.96
2023-04-27T11:37:44.919Z,52.92
2023-04-27T11:40:14.386Z,52.98
2023-04-27T11:42:43.546Z,52.97
2023-04-27T11:45:12.172Z,52.98
2023-04-27T11:47:40.891Z,52.94
2023-04-27T11:50:08.422Z,53.10
2023-04-27T11:52:37.073Z,52.65
2023-04-27T11:55:04.905Z,52.14
2023-04-27T11:57:34.038Z,52.25
2023-04-27T12:00:02.332Z,51.99
2023-04-27T12:02:40.406Z,51.77
2023-04-27T12:05:08.006Z,51.62
2023-04-27T12:07:35.831Z,51.47
2023-04-27T12:10:02.284Z,51.74
2023-04-27T12:12:28.781Z,51.80
2023-04-27T12:14:55.281Z,51.83
2023-04-27T12:17:21.715Z,51.78
2023-04-27T12:19:48.134Z,51.67
2023-04-27T12:22:14.564Z,51.64
2023-04-27T12:24:41.022Z,51.80
2023-04-27T12:27:08.323Z,51.93
2023-04-27T12:29:35.085Z,52.00
2023-04-27T12:32:01.622Z,51.53
2023-04-27T12:34:30.812Z,51.44
2023-04-27T12:36:57.264Z,51.04
2023-04-27T12:39:25.351Z,50.72
2023-04-27T12:41:53.694Z,50.49
2023-04-27T12:44:21.553Z,50.40
2023-04-27T12:46:49.037Z,50.44
2023-04-27T12:49:16.620Z,50.94
2023-04-27T12:51:43.249Z,50.52
2023-04-27T12:54:11.167Z,50.60
2023-04-27T12:56:37.768Z,50.41
2023-04-27T12:59:05.858Z,50.18
2023-04-27T13:01:32.424Z,50.00
2023-04-27T13:04:01.638Z,49.64
2023-04-27T13:06:29.405Z,49.64
2023-04-27T13:08:56.363Z,49.30
2023-04-27T13:11:24.270Z,49.50
2023-04-27T13:13:50.966Z,49.30
2023-04-27T13:16:19.586Z,49.45
2023-04-27T13:18:49.808Z,49.09
2023-04-27T13:21:16.613Z,49.20
2023-04-27T13:23:43.457Z,49.43
2023-04-27T13:26:10.267Z,49.48
2023-04-27T13:28:36.778Z,49.36
2023-04-27T13:31:04.041Z,49.66
2023-04-27T13:33:32.051Z,49.76
2023-04-27T13:36:02.007Z,49.65
2023-04-27T13:38:28.911Z,49.33
2023-04-27T13:40:55.424Z,48.54
2023-04-27T13:43:21.907Z,48.16
2023-04-27T13:45:49.809Z,48.38
2023-04-27T13:48:16.258Z,48.66
2023-04-27T13:50:42.687Z,48.63
2023-04-27T13:53:09.427Z,48.63
2023-04-27T13:55:36.486Z,48.48
2023-04-27T13:58:03.030Z,48.11
2023-04-27T14:00:33.331Z,48.49
2023-04-27T14:03:01.423Z,48.55
2023-04-27T14:05:27.976Z,48.73
2023-04-27T14:07:54.436Z,48.65
2023-04-27T14:10:20.919Z,48.93
2023-04-27T14:12:47.473Z,48.52
2023-04-27T14:15:14.417Z,48.32
2023-04-27T14:17:41.194Z,47.97
2023-04-27T14:20:08.297Z,47.73
2023-04-27T14:22:36.172Z,47.36
2023-04-27T14:25:03.013Z,47.40
2023-04-27T14:27:29.610Z,47.58
2023-04-27T14:29:56.456Z,47.99
2023-04-27T14:32:23.380Z,48.33
2023-04-27T14:34:49.833Z,48.38
2023-04-27T14:37:16.279Z,48.34
2023-04-27T14:39:45.123Z,47.58
2023-04-27T14:42:11.910Z,47.63
2023-04-27T14:44:38.325Z,47.49
2023-04-27T14:47:04.943Z,47.79
2023-04-27T14:49:32.056Z,47.73
2023-04-27T14:52:00.426Z,48.04
2023-04-27T14:54:26.881Z,48.08
2023-04-27T14:56:53.369Z,47.73
2023-04-27T14:59:19.873Z,47.92
2023-04-27T15:01:46.420Z,47.39
2023-04-27T15:04:12.999Z,47.65
2023-04-27T15:06:39.503Z,48.10
2023-04-27T15:09:06.206Z,48.24
2023-04-27T15:11:32.888Z,48.04
2023-04-27T15:13:59.341Z,48.42
2023-04-27T15:16:25.949Z,48.21
2023-04-27T15:18:52.428Z,47.54
2023-04-27T15:21:18.854Z,47.28
2023-04-27T15:23:45.364Z,47.60
2023-04-27T15:26:11.819Z,47.60
2023-04-27T15:28:38.527Z,47.34
2023-04-27T15:31:05.276Z,47.15
2023-04-27T15:33:31.791Z,47.65
2023-04-27T15:35:59.085Z,47.41
2023-04-27T15:38:26.326Z,47.54
2023-04-27T15:40:52.816Z,47.72
2023-04-27T15:43:19.287Z,47.87
2023-04-27T15:45:45.863Z,47.97
2023-04-27T15:48:12.420Z,48.03
2023-04-27T15:50:39.289Z,48.39
2023-04-27T15:53:06.198Z,48.48
2023-04-27T15:55:32.787Z,48.62
2023-04-27T15:57:59.212Z,48.95
2023-04-27T16:00:25.730Z,48.75
2023-04-27T16:02:52.458Z,49.07
2023-04-27T16:05:19.090Z,49.16
2023-04-27T16:07:45.923Z,49.43
2023-04-27T16:10:13.129Z,49.55
2023-04-27T16:12:39.753Z,49.46
2023-04-27T16:15:10.079Z,49.72
2023-04-27T16:17:37.825Z,49.52
2023-04-27T16:20:07.931Z,49.48
2023-04-27T16:22:34.900Z,49.90
2023-04-27T16:25:02.193Z,49.49
2023-04-27T16:27:28.600Z,49.89
2023-04-27T16:29:55.724Z,49.08
2023-04-27T16:32:23.227Z,48.89
2023-04-27T16:34:49.955Z,49.15
2023-04-27T16:37:16.428Z,49.37
2023-04-27T16:39:42.892Z,49.57
2023-04-27T16:42:09.701Z,49.99
2023-04-27T16:44:37.967Z,49.38
2023-04-27T16:47:04.443Z,49.37
2023-04-27T16:49:30.928Z,49.54
2023-04-27T16:51:57.429Z,49.54
2023-04-27T16:54:23.854Z,49.18
2023-04-27T16:56:50.305Z,48.22
2023-04-27T16:59:17.148Z,48.29
2023-04-27T17:01:50.198Z,48.05
2023-04-27T17:04:17.043Z,48.33
2023-04-27T17:06:45.820Z,47.79
2023-04-27T17:09:12.437Z,47.68
2023-04-27T17:11:38.934Z,47.80
2023-04-27T17:14:05.454Z,47.88
2023-04-27T17:16:31.951Z,47.63
2023-04-27T17:18:58.422Z,47.46
2023-04-27T17:21:27.317Z,46.50
2023-04-27T17:23:53.889Z,46.24
2023-04-27T17:26:21.477Z,46.37
2023-04-27T17:28:48.232Z,46.43
2023-04-27T17:31:17.351Z,45.85
2023-04-27T17:33:44.162Z,46.24
2023-04-27T17:36:11.230Z,46.42
2023-04-27T17:38:37.724Z,46.89
2023-04-27T17:41:04.189Z,46.62
2023-04-27T17:43:30.762Z,46.18
2023-04-27T17:45:57.267Z,45.87
2023-04-27T17:48:24.113Z,46.06
2023-04-27T17:50:50.530Z,46.20
2023-04-27T17:53:17.012Z,46.52
2023-04-27T17:55:47.599Z,46.30
2023-04-27T17:58:15.397Z,46.44
2023-04-27T18:00:43.055Z,46.61
2023-04-27T18:03:09.975Z,46.55
2023-04-27T18:05:36.728Z,46.02
2023-04-27T18:08:03.576Z,45.87
2023-04-27T18:10:33.070Z,46.65
2023-04-27T18:12:59.738Z,46.33
2023-04-27T18:15:26.154Z,46.68
2023-04-27T18:17:52.594Z,47.13
2023-04-27T18:20:19.103Z,47.45
2023-04-27T18:22:45.577Z,47.50
2023-04-27T18:25:13.089Z,47.58
2023-04-27T18:27:39.545Z,47.76
2023-04-27T18:30:07.774Z,47.42
2023-04-27T18:32:34.838Z,47.69
2023-04-27T18:35:02.286Z,47.83
2023-04-27T18:37:29.289Z,48.15
2023-04-27T18:39:56.155Z,48.18
2023-04-27T18:42:23.396Z,48.32
2023-04-27T18:44:52.005Z,48.48
2023-04-27T18:47:18.489Z,48.50
2023-04-27T18:49:44.882Z,48.54
2023-04-27T18:52:11.606Z,48.47
2023-04-27T18:54:38.610Z,48.50
2023-04-27T18:57:05.060Z,48.65
2023-04-27T18:59:31.549Z,48.47
2023-04-27T19:01:58.117Z,48.57
2023-04-27T19:04:26.089Z,48.74
2023-04-27T19:06:52.607Z,48.68
2023-04-27T19:09:19.216Z,48.74
2023-04-27T19:11:49.418Z,48.70
2023-04-27T19:14:19.778Z,48.94
2023-04-27T19:16:46.477Z,48.89
2023-04-27T19:19:13.263Z,48.78
2023-04-27T19:21:41.810Z,48.86
2023-04-27T19:24:08.358Z,48.96
2023-04-27T19:26:35.151Z,49.12
2023-04-27T19:29:02.261Z,49.12
2023-04-27T19:31:28.776Z,48.89
2023-04-27T19:33:55.808Z,49.41
2023-04-27T19:36:30.629Z,49.41
2023-04-27T19:38:57.257Z,49.43
2023-04-27T19:41:25.014Z,49.23
2023-04-27T19:43:51.463Z,49.47
2023-04-27T19:46:17.950Z,49.36
2023-04-27T19:48:44.392Z,49.50
2023-04-27T19:51:10.984Z,49.61
2023-04-27T19:53:38.087Z,49.43
2023-04-27T19:56:04.550Z,49.60
2023-04-27T19:58:31.147Z,49.62
2023-04-27T20:00:57.671Z,49.73
2023-04-27T20:03:24.449Z,49.68
2023-04-27T20:05:51.636Z,49.64
2023-04-27T20:08:18.352Z,49.69
2023-04-27T20:10:44.777Z,49.62
2023-04-27T20:13:11.253Z,49.87
2023-04-27T20:15:37.705Z,49.84
2023-04-27T20:18:04.346Z,49.97
2023-04-27T20:20:30.884Z,49.84
2023-04-27T20:22:57.372Z,49.95
2023-04-27T20:25:26.189Z,49.87
2023-04-27T20:27:52.908Z,50.11
2023-04-27T20:30:19.432Z,50.04
2023-04-27T20:32:46.529Z,50.04
2023-04-27T20:35:13.222Z,49.85
2023-04-27T20:37:41.865Z,50.08
2023-04-27T20:40:13.432Z,50.19
2023-04-27T20:42:40.770Z,50.16
2023-04-27T20:45:10.183Z,50.21
2023-04-27T20:47:37.649Z,50.17
2023-04-27T20:50:04.932Z,50.08
2023-04-27T20:52:33.912Z,50.14
2023-04-27T20:55:01.408Z,50.26
2023-04-27T20:57:27.859Z,50.36
2023-04-27T20:59:54.367Z,50.28
2023-04-27T21:02:20.827Z,50.35
2023-04-27T21:04:48.259Z,50.52
2023-04-27T21:07:14.738Z,50.67
2023-04-27T21:09:41.591Z,50.53
2023-04-27T21:12:08.673Z,50.52
2023-04-27T21:14:35.172Z,50.66
2023-04-27T21:17:01.734Z,50.58
2023-04-27T21:19:28.193Z,50.73
2023-04-27T21:21:54.619Z,50.74
2023-04-27T21:24:22.338Z,50.62
2023-04-27T21:26:48.982Z,50.73
2023-04-27T21:29:15.443Z,50.71
2023-04-27T21:31:41.903Z,50.73
2023-04-27T21:34:08.318Z,50.96
2023-04-27T21:36:34.757Z,50.80
2023-04-27T21:39:01.249Z,50.90
2023-04-27T21:41:27.707Z,50.89
2023-04-27T21:43:54.521Z,51.10
2023-04-27T21:46:23.156Z,51.20
2023-04-27T21:48:49.613Z,51.17
2023-04-27T21:51:16.034Z,51.05
2023-04-27T21:53:42.461Z,51.06
2023-04-27T21:56:09.008Z,50.94
2023-04-27T21:58:35.384Z,51.23
2023-04-27T22:01:02.299Z,51.21
2023-04-27T22:03:28.936Z,51.16
2023-04-27T22:05:57.425Z,51.13
2023-04-27T22:08:23.914Z,51.28
2023-04-27T22:10:50.348Z,51.27
2023-04-27T22:13:19.165Z,51.38
2023-04-27T22:15:46.396Z,51.37
2023-04-27T22:18:14.342Z,51.13
2023-04-27T22:20:42.276Z,51.34
2023-04-27T22:23:09.409Z,51.29
2023-04-27T22:25:36.122Z,51.33
2023-04-27T22:28:02.627Z,51.39
2023-04-27T22:30:29.312Z,51.50
2023-04-27T22:32:56.284Z,51.46
2023-04-27T22:35:27.072Z,51.49
2023-04-27T22:37:55.655Z,51.48
2023-04-27T22:40:22.345Z,51.51
2023-04-27T22:42:48.859Z,51.61
2023-04-27T22:45:15.327Z,51.57
2023-04-27T22:47:41.878Z,51.72
2023-04-27T22:50:08.604Z,51.68
2023-04-27T22:52:37.156Z,51.76
2023-04-27T22:55:04.277Z,51.65
2023-04-27T22:57:30.872Z,51.76
2023-04-27T22:59:57.342Z,51.73
2023-04-27T23:02:23.942Z,51.85
2023-04-27T23:04:50.916Z,51.73
2023-04-27T23:07:18.311Z,51.79
2023-04-27T23:09:45.709Z,51.90
2023-04-27T23:12:12.190Z,51.96
2023-04-27T23:14:39.993Z,52.10
2023-04-27T23:17:07.358Z,51.96
2023-04-27T23:19:34.468Z,51.95
2023-04-27T23:22:01.765Z,52.07
2023-04-27T23:24:31.311Z,52.02
2023-04-27T23:26:58.351Z,52.10
2023-04-27T23:29:25.359Z,52.11
2023-04-27T23:31:51.898Z,52.04
2023-04-27T23:34:18.690Z,52.10
2023-04-27T23:36:45.205Z,52.11
2023-04-27T23:39:11.644Z,52.14
2023-04-27T23:41:38.256Z,52.21
2023-04-27T23:44:04.767Z,51.96
2023-04-27T23:46:31.229Z,52.20
2023-04-27T23:48:57.785Z,52.25
2023-04-27T23:51:24.276Z,52.26
2023-04-27T23:53:50.743Z,52.34
2023-04-27T23:56:18.056Z,52.17
2023-04-27T23:58:44.821Z,52.27
